Catalonia — 9HWS7 — position and weather

sailwx.info

Track history (hours):
 
Tides and Currents Weather Stations Pressure Air Temp Water Temp Dewpoint Dewpoint Depression Visibility Wind Speed Wind Dir Waves Ship Positions

Catalonia

Last reported at 2017-Dec-12 19:54 UTC. Time now 2017-Dec-17 23:24 UTC.
Position N 01°16' E 104°07'.

Length 189 m; draft 8 m.

Type: Ship. MMSI: 215929000.

Date/timePositionNaut miles runAvg speedWind from/ knotsBaromVisibWave heightAir tempDewpointWater temp
2017-Dec-12 19:54N 01°16' E 104°07'511.0
2017-Dec-12 19:29N 01°20' E 104°05'4 9.2
2017-Dec-12 19:00N 01°22' E 104°02'5 9.8
2017-Dec-12 18:30N 01°24' E 103°57'3 4.5
2017-Dec-12 17:53N 01°26' E 103°55'0 0.0
2017-Dec-12 17:23N 01°26' E 103°55'0 0.0
2017-Dec-12 16:47N 01°26' E 103°55'0 0.0
2017-Dec-12 16:29N 01°26' E 103°55'0 0.0
2017-Dec-12 15:59N 01°26' E 103°55'0 0.0
2017-Dec-12 15:23N 01°26' E 103°55'0 0.0
2017-Dec-12 14:35N 01°26' E 103°55'0 0.0
2017-Dec-12 14:29N 01°26' E 103°55'0 0.0
2017-Dec-12 13:59N 01°26' E 103°55'0 0.0
2017-Dec-12 11:53N 01°26' E 103°55'0 0.0
2017-Dec-12 07:42N 01°26' E 103°55'0 0.0
2017-Dec-12 07:24N 01°26' E 103°55'0 0.0
2017-Dec-12 05:36N 01°26' E 103°55'0 0.0
2017-Dec-12 05:18N 01°26' E 103°55'0 0.0
2017-Dec-12 05:00N 01°26' E 103°55'0 0.0
2017-Dec-12 04:30N 01°26' E 103°55'0 0.0
2017-Dec-12 02:54N 01°26' E 103°55'0 0.0
2017-Dec-12 01:18N 01°26' E 103°55'0 0.0
2017-Dec-12 00:54N 01°26' E 103°55'0 0.0
2017-Dec-11 23:24N 01°26' E 103°55'0 0.0
2017-Dec-11 22:57N 01°26' E 103°55'0 0.0
2017-Dec-11 22:30N 01°26' E 103°55'0 0.0
2017-Dec-11 20:18N 01°26' E 103°55'0 0.0
2017-Dec-11 19:57N 01°26' E 103°55'0 0.0
2017-Dec-11 19:30N 01°26' E 103°55'0 0.0
2017-Dec-11 18:54N 01°26' E 103°55'0 0.0
2017-Dec-11 16:33N 01°26' E 103°55'0 0.0
2017-Dec-11 16:30N 01°26' E 103°55'0 0.0
2017-Dec-11 14:03N 01°26' E 103°55'0 0.0
2017-Dec-11 12:24N 01°26' E 103°55'0 0.0
2017-Dec-11 11:34N 01°26' E 103°55'0 0.0
2017-Dec-11 11:16N 01°26' E 103°55'0 0.0
2017-Dec-11 10:04N 01°26' E 103°55'0 0.0
2017-Dec-11 09:58N 01°26' E 103°55'0 0.0
2017-Dec-11 09:22N 01°26' E 103°55'0 0.0
2017-Dec-11 08:10N 01°26' E 103°55'0 0.0
2017-Dec-11 06:58N 01°26' E 103°55'0 0.0
2017-Dec-10 01:57N 01°26' E 103°55'0 0.0
2017-Dec-10 01:30N 01°26' E 103°55'0 0.0
2017-Dec-10 00:59N 01°26' E 103°55'0 0.0
2017-Dec-10 00:31N 01°26' E 103°55'0 0.0
2017-Dec-09 23:59N 01°26' E 103°55'0 0.0
2017-Dec-09 23:21N 01°26' E 103°55'0 0.0
2017-Dec-09 22:58N 01°26' E 103°55'0 0.0
2017-Dec-09 22:27N 01°26' E 103°55'0 0.0
2017-Dec-09 22:01N 01°26' E 103°55'0 0.0
2017-Dec-09 21:30N 01°26' E 103°55'0 0.0
2017-Dec-09 20:59N 01°26' E 103°55'0 0.0
2017-Dec-09 20:30N 01°26' E 103°55'0 0.0
2017-Dec-09 19:57N 01°26' E 103°55'0 0.0
2017-Dec-09 19:28N 01°26' E 103°55'0 0.0
2017-Dec-09 18:56N 01°26' E 103°55'0 0.0
2017-Dec-09 18:30N 01°26' E 103°55'0 0.0
2017-Dec-09 18:01N 01°26' E 103°55'0 0.0
2017-Dec-09 17:27N 01°26' E 103°55'0 0.0
2017-Dec-09 16:55N 01°26' E 103°55'0 0.0
2017-Dec-09 16:30N 01°26' E 103°55'0 0.0
2017-Dec-09 15:57N 01°26' E 103°55'0 0.0
2017-Dec-09 15:30N 01°26' E 103°55'0 0.0
2017-Dec-09 14:59N 01°26' E 103°55'0 0.0
2017-Dec-09 14:28N 01°26' E 103°55'0 0.0
2017-Dec-09 14:01N 01°26' E 103°55'0 0.0
2017-Dec-09 13:29N 01°26' E 103°55'0 0.0
2017-Dec-09 13:01N 01°26' E 103°55'0 0.0
2017-Dec-09 12:30N 01°26' E 103°55'0 0.0
2017-Dec-09 11:59N 01°26' E 103°55'0 0.0
2017-Dec-09 11:30N 01°26' E 103°55'0 0.0
2017-Dec-09 11:01N 01°26' E 103°55'0 0.0
2017-Dec-09 10:31N 01°26' E 103°55'0 0.0
2017-Dec-09 09:50N 01°26' E 103°55'0 0.0
2017-Dec-09 09:28N 01°26' E 103°55'3 3.6
2017-Dec-09 08:35N 01°24' E 103°57'110.0
2017-Dec-09 08:29N 01°24' E 103°58'5 9.3
2017-Dec-09 07:57N 01°22' E 104°03'4 9.8
2017-Dec-09 07:30N 01°19' E 104°06'1 0.1
2017-Dec-09 02:07N 01°19' E 104°07'1 3.4
2017-Dec-09 01:57N 01°19' E 104°07'9 7.5
2017-Dec-09 00:41N 01°14' E 103°58'210.3
2017-Dec-09 00:30N 01°14' E 103°57'5 9.9
2017-Dec-09 00:00N 01°12' E 103°52'4 8.1
2017-Dec-08 23:30N 01°12' E 103°48'4 8.3
2017-Dec-08 23:00N 01°16' E 103°46'4 7.2
2017-Dec-08 22:30N 01°18' E 103°43'0 0.3
2017-Dec-08 22:00N 01°18' E 103°43'0 0.0
2017-Dec-08 21:30N 01°18' E 103°43'0 0.0
2017-Dec-08 21:00N 01°18' E 103°43'0 0.0
2017-Dec-08 20:30N 01°18' E 103°43'0 0.0
2017-Dec-08 20:00N 01°18' E 103°43'0 0.0
2017-Dec-08 19:30N 01°18' E 103°43'0 0.0
2017-Dec-08 19:00N 01°18' E 103°43'0 0.0
2017-Dec-08 18:31N 01°18' E 103°43'0 0.0
2017-Dec-08 18:00N 01°18' E 103°43'0 0.0
2017-Dec-08 17:30N 01°18' E 103°43'0 0.0
2017-Dec-08 17:00N 01°18' E 103°43'0 0.0
2017-Dec-08 16:30N 01°18' E 103°43'0 0.0
2017-Dec-08 16:00N 01°18' E 103°43'0 0.0
2017-Dec-08 15:30N 01°18' E 103°43'0 0.0
2017-Dec-08 15:00N 01°18' E 103°43'0 0.0
2017-Dec-08 14:30N 01°18' E 103°43'0 0.0
2017-Dec-08 14:00N 01°18' E 103°43'0 0.0
2017-Dec-08 13:30N 01°18' E 103°43'0 0.0
2017-Dec-08 13:00N 01°18' E 103°43'0 0.0
2017-Dec-08 12:30N 01°18' E 103°43'0 0.0
2017-Dec-08 12:00N 01°18' E 103°43'0 0.0
2017-Dec-08 11:30N 01°18' E 103°43'0 0.0
2017-Dec-08 11:00N 01°18' E 103°43'0 0.0
2017-Dec-08 10:30N 01°18' E 103°43'0 0.0
2017-Dec-08 10:01N 01°18' E 103°43'0 0.0
2017-Dec-08 09:30N 01°18' E 103°43'0 0.0
2017-Dec-08 09:00N 01°18' E 103°43'0 0.0
2017-Dec-08 08:30N 01°18' E 103°43'0 0.0
2017-Dec-08 08:01N 01°18' E 103°43'0 0.0
2017-Dec-08 07:30N 01°18' E 103°43'0 0.0
2017-Dec-08 07:00N 01°18' E 103°43'0 0.0
2017-Dec-08 06:30N 01°18' E 103°43'0 0.0
2017-Dec-08 06:00N 01°18' E 103°43'0 0.0
2017-Dec-08 05:30N 01°18' E 103°43'0 0.0
2017-Dec-08 05:00N 01°18' E 103°43'0 0.0
2017-Dec-08 04:30N 01°18' E 103°43'0 0.0
2017-Dec-08 04:00N 01°18' E 103°43'0 0.0
2017-Dec-08 03:30N 01°18' E 103°43'0 0.0
2017-Dec-08 03:00N 01°18' E 103°43'0 0.0
2017-Dec-08 02:30N 01°18' E 103°43'0 0.0
2017-Dec-08 02:00N 01°18' E 103°43'0 0.0
2017-Dec-08 01:30N 01°18' E 103°43'0 0.0
2017-Dec-08 01:00N 01°18' E 103°43'0 0.0
2017-Dec-08 00:31N 01°18' E 103°43'0 0.0
2017-Dec-08 00:00N 01°18' E 103°43'0 0.0
2017-Dec-07 23:30N 01°18' E 103°43'0 0.0
2017-Dec-07 23:00N 01°18' E 103°43'0 0.0
2017-Dec-07 22:30N 01°18' E 103°43'0 0.0
2017-Dec-07 22:00N 01°18' E 103°43'0 0.0
2017-Dec-07 21:30N 01°18' E 103°43'0 0.0
2017-Dec-07 21:00N 01°18' E 103°43'0 0.0
2017-Dec-07 20:30N 01°18' E 103°43'0 0.0
2017-Dec-07 20:00N 01°18' E 103°43'0 0.0
2017-Dec-07 19:30N 01°18' E 103°43'0 0.0
2017-Dec-07 19:00N 01°18' E 103°43'0 0.0
2017-Dec-07 18:30N 01°18' E 103°43'0 0.0
2017-Dec-07 18:00N 01°18' E 103°43'0 0.0
2017-Dec-07 17:30N 01°18' E 103°43'0 0.0
2017-Dec-07 17:00N 01°18' E 103°43'0 0.0
2017-Dec-07 16:30N 01°18' E 103°43'0 0.0
2017-Dec-07 16:00N 01°18' E 103°43'0 0.0
2017-Dec-07 15:30N 01°18' E 103°43'0 0.0
2017-Dec-07 15:00N 01°18' E 103°43'0 0.0
2017-Dec-07 14:30N 01°18' E 103°43'0 0.0
2017-Dec-07 14:00N 01°18' E 103°43'0 0.0
2017-Dec-07 13:30N 01°18' E 103°43'0 0.0
2017-Dec-07 13:00N 01°18' E 103°43'0 0.0
2017-Dec-07 12:31N 01°18' E 103°43'0 0.0
2017-Dec-07 12:00N 01°18' E 103°43'0 0.0
2017-Dec-07 11:30N 01°18' E 103°43'0 0.0
2017-Dec-07 11:00N 01°18' E 103°43'0 0.0
2017-Dec-07 10:30N 01°18' E 103°43'0 0.0
2017-Dec-07 10:00N 01°18' E 103°43'0 0.0
2017-Dec-07 09:30N 01°18' E 103°43'0 0.0
2017-Dec-07 09:00N 01°18' E 103°43'0 0.0
2017-Dec-07 08:30N 01°18' E 103°43'0 0.0
2017-Dec-07 08:00N 01°18' E 103°43'0 0.0
2017-Dec-07 07:30N 01°18' E 103°43'0 0.0
2017-Dec-07 07:00N 01°18' E 103°43'0 0.0
2017-Dec-07 06:30N 01°18' E 103°43'0 0.0
2017-Dec-07 06:00N 01°18' E 103°43'0 0.0
2017-Dec-07 05:30N 01°18' E 103°43'0 0.0
2017-Dec-07 05:00N 01°18' E 103°43'0 0.0
2017-Dec-07 04:30N 01°18' E 103°43'0 0.0
2017-Dec-07 04:00N 01°18' E 103°43'0 0.0
2017-Dec-07 03:30N 01°18' E 103°43'0 0.0
2017-Dec-07 03:00N 01°18' E 103°43'0 0.0
2017-Dec-07 02:30N 01°18' E 103°43'0 0.0
2017-Dec-07 02:01N 01°18' E 103°43'0 0.0
2017-Dec-07 01:30N 01°18' E 103°43'0 0.0
2017-Dec-07 01:00N 01°18' E 103°43'0 0.0
2017-Dec-07 00:30N 01°18' E 103°43'0 0.0
2017-Dec-07 00:00N 01°18' E 103°43'0 0.0
2017-Dec-06 23:30N 01°18' E 103°43'0 0.0
2017-Dec-06 23:00N 01°18' E 103°43'0 0.0
2017-Dec-06 22:30N 01°18' E 103°43'0 0.0
2017-Dec-06 22:00N 01°18' E 103°43'0 0.0
2017-Dec-06 21:30N 01°18' E 103°43'0 0.0
2017-Dec-06 21:00N 01°18' E 103°43'  
2017-Dec-04 10:31N 01°18' E 103°43'0 0.0
2017-Dec-04 10:00N 01°18' E 103°43'0 0.0
2017-Dec-04 09:30N 01°18' E 103°43'0 0.0
2017-Dec-04 09:00N 01°18' E 103°43'0 0.0
2017-Dec-04 08:30N 01°18' E 103°43'0 0.0
2017-Dec-04 08:00N 01°18' E 103°43'0 0.0
2017-Dec-04 07:30N 01°18' E 103°43'0 0.0
2017-Dec-04 07:00N 01°18' E 103°43'0 0.0
2017-Dec-04 06:30N 01°18' E 103°43'0 0.0
2017-Dec-04 06:00N 01°18' E 103°43'0 0.0
2017-Dec-04 05:30N 01°18' E 103°43'0 0.0
2017-Dec-04 05:00N 01°18' E 103°43'0 0.0
2017-Dec-04 04:30N 01°18' E 103°43'0 0.0
2017-Dec-04 04:00N 01°18' E 103°43'0 0.0
2017-Dec-04 03:30N 01°18' E 103°43'0 0.0
2017-Dec-04 03:00N 01°18' E 103°43'0 0.0
2017-Dec-04 02:30N 01°18' E 103°43'0 0.0
2017-Dec-04 02:00N 01°18' E 103°43'0 0.0
2017-Dec-04 01:30N 01°18' E 103°43'0 0.0
2017-Dec-04 01:00N 01°18' E 103°43'0 0.0
2017-Dec-04 00:30N 01°18' E 103°43'0 0.0
2017-Dec-04 00:00N 01°18' E 103°43'0 0.0
2017-Dec-03 23:30N 01°18' E 103°43'0 0.0
2017-Dec-03 23:00N 01°18' E 103°43'0 0.0
2017-Dec-03 22:30N 01°18' E 103°43'0 0.0
2017-Dec-03 22:00N 01°18' E 103°43'0 0.0
2017-Dec-03 21:30N 01°18' E 103°43'0 0.0
2017-Dec-03 21:00N 01°18' E 103°43'0 0.0
2017-Dec-03 20:30N 01°18' E 103°43'0 0.0
2017-Dec-03 20:00N 01°18' E 103°43'0 0.0
2017-Dec-03 19:30N 01°18' E 103°43'0 0.0
2017-Dec-03 19:00N 01°18' E 103°43'0 0.0
2017-Dec-03 18:30N 01°18' E 103°43'0 0.0
2017-Dec-03 18:00N 01°18' E 103°43'0 0.0
2017-Dec-03 17:30N 01°18' E 103°43'0 0.0
2017-Dec-03 17:00N 01°18' E 103°43'0 0.0
2017-Dec-03 16:31N 01°18' E 103°43'0 0.0
2017-Dec-03 16:00N 01°18' E 103°43'0 0.0
2017-Dec-03 15:30N 01°18' E 103°43'0 0.0
2017-Dec-03 15:00N 01°18' E 103°43'0 0.0
2017-Dec-03 14:30N 01°18' E 103°43'0 0.0
2017-Dec-03 14:00N 01°18' E 103°43'0 0.0
2017-Dec-03 13:30N 01°18' E 103°43'0 0.0
2017-Dec-03 13:00N 01°18' E 103°43'0 0.0
2017-Dec-03 12:30N 01°18' E 103°43'0 0.0
2017-Dec-03 12:00N 01°18' E 103°43'0 0.0
2017-Dec-03 11:30N 01°18' E 103°43'0 0.0
2017-Dec-03 11:00N 01°18' E 103°43'0 0.0
2017-Dec-03 10:30N 01°18' E 103°43'0 0.0
2017-Dec-03 10:00N 01°18' E 103°43'0 0.0
2017-Dec-03 09:30N 01°18' E 103°43'0 0.0
2017-Dec-03 09:00N 01°18' E 103°43'0 0.0
2017-Dec-03 08:30N 01°18' E 103°43'0 0.0
2017-Dec-03 08:00N 01°18' E 103°43'0 0.0
2017-Dec-03 07:30N 01°18' E 103°43'0 0.0
2017-Dec-03 07:00N 01°18' E 103°43'0 0.0
2017-Dec-03 06:30N 01°18' E 103°43'0 0.0
2017-Dec-03 06:00N 01°18' E 103°43'0 0.0
2017-Dec-03 05:30N 01°18' E 103°43'0 0.0
2017-Dec-03 05:00N 01°18' E 103°43'0 0.0
2017-Dec-03 04:30N 01°18' E 103°43'0 0.0
2017-Dec-03 04:00N 01°18' E 103°43'0 0.0
2017-Dec-03 03:30N 01°18' E 103°43'0 0.0
2017-Dec-03 03:00N 01°18' E 103°43'0 0.0
2017-Dec-03 02:30N 01°18' E 103°43'0 0.0
2017-Dec-03 02:00N 01°18' E 103°43'0 0.0
2017-Dec-03 01:30N 01°18' E 103°43'0 0.0
2017-Dec-03 01:00N 01°18' E 103°43'0 0.0
2017-Dec-03 00:30N 01°18' E 103°43'0 0.0
2017-Dec-03 00:01N 01°18' E 103°43'0 0.4
2017-Dec-02 23:30N 01°18' E 103°43'1 2.1
2017-Dec-02 23:00N 01°17' E 103°44'3 6.2
2017-Dec-02 22:30N 01°16' E 103°46'510.4
2017-Dec-02 22:00N 01°12' E 103°50'5 9.6
2017-Dec-02 21:30N 01°14' E 103°55'4 8.4
2017-Dec-02 21:00N 01°15' E 103°59'5 8.7
2017-Dec-02 20:28N 01°16' E 104°03'  
Track history (hours):
 
Tides and Currents Weather Stations Pressure Air Temp Water Temp Dewpoint Dewpoint Depression Visibility Wind Speed Wind Dir Waves Ship Positions

Catalonia

Last reported at 2017-Dec-12 19:54 UTC. Time now 2017-Dec-17 23:24 UTC.
Position N 01°16' E 104°07'.

Length 189 m; draft 8 m.

Type: Ship. MMSI: 215929000.

Date/timePositionNaut miles runAvg speedWind from/ knotsBaromVisibWave heightAir tempDewpointWater temp
2017-Dec-12 19:54N 01°16' E 104°07'511.0
2017-Dec-12 19:29N 01°20' E 104°05'4 9.2
2017-Dec-12 19:00N 01°22' E 104°02'5 9.8
2017-Dec-12 18:30N 01°24' E 103°57'3 4.5
2017-Dec-12 17:53N 01°26' E 103°55'0 0.0
2017-Dec-12 17:23N 01°26' E 103°55'0 0.0
2017-Dec-12 16:47N 01°26' E 103°55'0 0.0
2017-Dec-12 16:29N 01°26' E 103°55'0 0.0
2017-Dec-12 15:59N 01°26' E 103°55'0 0.0
2017-Dec-12 15:23N 01°26' E 103°55'0 0.0
2017-Dec-12 14:35N 01°26' E 103°55'0 0.0
2017-Dec-12 14:29N 01°26' E 103°55'0 0.0
2017-Dec-12 13:59N 01°26' E 103°55'0 0.0
2017-Dec-12 11:53N 01°26' E 103°55'0 0.0
2017-Dec-12 07:42N 01°26' E 103°55'0 0.0
2017-Dec-12 07:24N 01°26' E 103°55'0 0.0
2017-Dec-12 05:36N 01°26' E 103°55'0 0.0
2017-Dec-12 05:18N 01°26' E 103°55'0 0.0
2017-Dec-12 05:00N 01°26' E 103°55'0 0.0
2017-Dec-12 04:30N 01°26' E 103°55'0 0.0
2017-Dec-12 02:54N 01°26' E 103°55'0 0.0
2017-Dec-12 01:18N 01°26' E 103°55'0 0.0
2017-Dec-12 00:54N 01°26' E 103°55'0 0.0
2017-Dec-11 23:24N 01°26' E 103°55'0 0.0
2017-Dec-11 22:57N 01°26' E 103°55'0 0.0
2017-Dec-11 22:30N 01°26' E 103°55'0 0.0
2017-Dec-11 20:18N 01°26' E 103°55'0 0.0
2017-Dec-11 19:57N 01°26' E 103°55'0 0.0
2017-Dec-11 19:30N 01°26' E 103°55'0 0.0
2017-Dec-11 18:54N 01°26' E 103°55'0 0.0
2017-Dec-11 16:33N 01°26' E 103°55'0 0.0
2017-Dec-11 16:30N 01°26' E 103°55'0 0.0
2017-Dec-11 14:03N 01°26' E 103°55'0 0.0
2017-Dec-11 12:24N 01°26' E 103°55'0 0.0
2017-Dec-11 11:34N 01°26' E 103°55'0 0.0
2017-Dec-11 11:16N 01°26' E 103°55'0 0.0
2017-Dec-11 10:04N 01°26' E 103°55'0 0.0
2017-Dec-11 09:58N 01°26' E 103°55'0 0.0
2017-Dec-11 09:22N 01°26' E 103°55'0 0.0
2017-Dec-11 08:10N 01°26' E 103°55'0 0.0
2017-Dec-11 06:58N 01°26' E 103°55'0 0.0
2017-Dec-10 01:57N 01°26' E 103°55'0 0.0
2017-Dec-10 01:30N 01°26' E 103°55'0 0.0
2017-Dec-10 00:59N 01°26' E 103°55'0 0.0
2017-Dec-10 00:31N 01°26' E 103°55'0 0.0
2017-Dec-09 23:59N 01°26' E 103°55'0 0.0
2017-Dec-09 23:21N 01°26' E 103°55'0 0.0
2017-Dec-09 22:58N 01°26' E 103°55'0 0.0
2017-Dec-09 22:27N 01°26' E 103°55'0 0.0
2017-Dec-09 22:01N 01°26' E 103°55'0 0.0
2017-Dec-09 21:30N 01°26' E 103°55'0 0.0
2017-Dec-09 20:59N 01°26' E 103°55'0 0.0
2017-Dec-09 20:30N 01°26' E 103°55'0 0.0
2017-Dec-09 19:57N 01°26' E 103°55'0 0.0
2017-Dec-09 19:28N 01°26' E 103°55'0 0.0
2017-Dec-09 18:56N 01°26' E 103°55'0 0.0
2017-Dec-09 18:30N 01°26' E 103°55'0 0.0
2017-Dec-09 18:01N 01°26' E 103°55'0 0.0
2017-Dec-09 17:27N 01°26' E 103°55'0 0.0
2017-Dec-09 16:55N 01°26' E 103°55'0 0.0
2017-Dec-09 16:30N 01°26' E 103°55'0 0.0
2017-Dec-09 15:57N 01°26' E 103°55'0 0.0
2017-Dec-09 15:30N 01°26' E 103°55'0 0.0
2017-Dec-09 14:59N 01°26' E 103°55'0 0.0
2017-Dec-09 14:28N 01°26' E 103°55'0 0.0
2017-Dec-09 14:01N 01°26' E 103°55'0 0.0
2017-Dec-09 13:29N 01°26' E 103°55'0 0.0
2017-Dec-09 13:01N 01°26' E 103°55'0 0.0
2017-Dec-09 12:30N 01°26' E 103°55'0 0.0
2017-Dec-09 11:59N 01°26' E 103°55'0 0.0
2017-Dec-09 11:30N 01°26' E 103°55'0 0.0
2017-Dec-09 11:01N 01°26' E 103°55'0 0.0
2017-Dec-09 10:31N 01°26' E 103°55'0 0.0
2017-Dec-09 09:50N 01°26' E 103°55'0 0.0
2017-Dec-09 09:28N 01°26' E 103°55'3 3.6
2017-Dec-09 08:35N 01°24' E 103°57'110.0
2017-Dec-09 08:29N 01°24' E 103°58'5 9.3
2017-Dec-09 07:57N 01°22' E 104°03'4 9.8
2017-Dec-09 07:30N 01°19' E 104°06'1 0.1
2017-Dec-09 02:07N 01°19' E 104°07'1 3.4
2017-Dec-09 01:57N 01°19' E 104°07'9 7.5
2017-Dec-09 00:41N 01°14' E 103°58'210.3
2017-Dec-09 00:30N 01°14' E 103°57'5 9.9
2017-Dec-09 00:00N 01°12' E 103°52'4 8.1
2017-Dec-08 23:30N 01°12' E 103°48'4 8.3
2017-Dec-08 23:00N 01°16' E 103°46'4 7.2
2017-Dec-08 22:30N 01°18' E 103°43'0 0.3
2017-Dec-08 22:00N 01°18' E 103°43'0 0.0
2017-Dec-08 21:30N 01°18' E 103°43'0 0.0
2017-Dec-08 21:00N 01°18' E 103°43'0 0.0
2017-Dec-08 20:30N 01°18' E 103°43'0 0.0
2017-Dec-08 20:00N 01°18' E 103°43'0 0.0
2017-Dec-08 19:30N 01°18' E 103°43'0 0.0
2017-Dec-08 19:00N 01°18' E 103°43'0 0.0
2017-Dec-08 18:31N 01°18' E 103°43'0 0.0
2017-Dec-08 18:00N 01°18' E 103°43'0 0.0
2017-Dec-08 17:30N 01°18' E 103°43'0 0.0
2017-Dec-08 17:00N 01°18' E 103°43'0 0.0
2017-Dec-08 16:30N 01°18' E 103°43'0 0.0
2017-Dec-08 16:00N 01°18' E 103°43'0 0.0
2017-Dec-08 15:30N 01°18' E 103°43'0 0.0
2017-Dec-08 15:00N 01°18' E 103°43'0 0.0
2017-Dec-08 14:30N 01°18' E 103°43'0 0.0
2017-Dec-08 14:00N 01°18' E 103°43'0 0.0
2017-Dec-08 13:30N 01°18' E 103°43'0 0.0
2017-Dec-08 13:00N 01°18' E 103°43'0 0.0
2017-Dec-08 12:30N 01°18' E 103°43'0 0.0
2017-Dec-08 12:00N 01°18' E 103°43'0 0.0
2017-Dec-08 11:30N 01°18' E 103°43'0 0.0
2017-Dec-08 11:00N 01°18' E 103°43'0 0.0
2017-Dec-08 10:30N 01°18' E 103°43'0 0.0
2017-Dec-08 10:01N 01°18' E 103°43'0 0.0
2017-Dec-08 09:30N 01°18' E 103°43'0 0.0
2017-Dec-08 09:00N 01°18' E 103°43'0 0.0
2017-Dec-08 08:30N 01°18' E 103°43'0 0.0
2017-Dec-08 08:01N 01°18' E 103°43'0 0.0
2017-Dec-08 07:30N 01°18' E 103°43'0 0.0
2017-Dec-08 07:00N 01°18' E 103°43'0 0.0
2017-Dec-08 06:30N 01°18' E 103°43'0 0.0
2017-Dec-08 06:00N 01°18' E 103°43'0 0.0
2017-Dec-08 05:30N 01°18' E 103°43'0 0.0
2017-Dec-08 05:00N 01°18' E 103°43'0 0.0
2017-Dec-08 04:30N 01°18' E 103°43'0 0.0
2017-Dec-08 04:00N 01°18' E 103°43'0 0.0
2017-Dec-08 03:30N 01°18' E 103°43'0 0.0
2017-Dec-08 03:00N 01°18' E 103°43'0 0.0
2017-Dec-08 02:30N 01°18' E 103°43'0 0.0
2017-Dec-08 02:00N 01°18' E 103°43'0 0.0
2017-Dec-08 01:30N 01°18' E 103°43'0 0.0
2017-Dec-08 01:00N 01°18' E 103°43'0 0.0
2017-Dec-08 00:31N 01°18' E 103°43'0 0.0
2017-Dec-08 00:00N 01°18' E 103°43'0 0.0
2017-Dec-07 23:30N 01°18' E 103°43'0 0.0
2017-Dec-07 23:00N 01°18' E 103°43'0 0.0
2017-Dec-07 22:30N 01°18' E 103°43'0 0.0
2017-Dec-07 22:00N 01°18' E 103°43'0 0.0
2017-Dec-07 21:30N 01°18' E 103°43'0 0.0
2017-Dec-07 21:00N 01°18' E 103°43'0 0.0
2017-Dec-07 20:30N 01°18' E 103°43'0 0.0
2017-Dec-07 20:00N 01°18' E 103°43'0 0.0
2017-Dec-07 19:30N 01°18' E 103°43'0 0.0
2017-Dec-07 19:00N 01°18' E 103°43'0 0.0
2017-Dec-07 18:30N 01°18' E 103°43'0 0.0
2017-Dec-07 18:00N 01°18' E 103°43'0 0.0
2017-Dec-07 17:30N 01°18' E 103°43'0 0.0
2017-Dec-07 17:00N 01°18' E 103°43'0 0.0
2017-Dec-07 16:30N 01°18' E 103°43'0 0.0
2017-Dec-07 16:00N 01°18' E 103°43'0 0.0
2017-Dec-07 15:30N 01°18' E 103°43'0 0.0
2017-Dec-07 15:00N 01°18' E 103°43'0 0.0
2017-Dec-07 14:30N 01°18' E 103°43'0 0.0
2017-Dec-07 14:00N 01°18' E 103°43'0 0.0
2017-Dec-07 13:30N 01°18' E 103°43'0 0.0
2017-Dec-07 13:00N 01°18' E 103°43'0 0.0
2017-Dec-07 12:31N 01°18' E 103°43'0 0.0
2017-Dec-07 12:00N 01°18' E 103°43'0 0.0
2017-Dec-07 11:30N 01°18' E 103°43'0 0.0
2017-Dec-07 11:00N 01°18' E 103°43'0 0.0
2017-Dec-07 10:30N 01°18' E 103°43'0 0.0
2017-Dec-07 10:00N 01°18' E 103°43'0 0.0
2017-Dec-07 09:30N 01°18' E 103°43'0 0.0
2017-Dec-07 09:00N 01°18' E 103°43'0 0.0
2017-Dec-07 08:30N 01°18' E 103°43'0 0.0
2017-Dec-07 08:00N 01°18' E 103°43'0 0.0
2017-Dec-07 07:30N 01°18' E 103°43'0 0.0
2017-Dec-07 07:00N 01°18' E 103°43'0 0.0
2017-Dec-07 06:30N 01°18' E 103°43'0 0.0
2017-Dec-07 06:00N 01°18' E 103°43'0 0.0
2017-Dec-07 05:30N 01°18' E 103°43'0 0.0
2017-Dec-07 05:00N 01°18' E 103°43'0 0.0
2017-Dec-07 04:30N 01°18' E 103°43'0 0.0
2017-Dec-07 04:00N 01°18' E 103°43'0 0.0
2017-Dec-07 03:30N 01°18' E 103°43'0 0.0
2017-Dec-07 03:00N 01°18' E 103°43'0 0.0
2017-Dec-07 02:30N 01°18' E 103°43'0 0.0
2017-Dec-07 02:01N 01°18' E 103°43'0 0.0
2017-Dec-07 01:30N 01°18' E 103°43'0 0.0
2017-Dec-07 01:00N 01°18' E 103°43'0 0.0
2017-Dec-07 00:30N 01°18' E 103°43'0 0.0
2017-Dec-07 00:00N 01°18' E 103°43'0 0.0
2017-Dec-06 23:30N 01°18' E 103°43'0 0.0
2017-Dec-06 23:00N 01°18' E 103°43'0 0.0
2017-Dec-06 22:30N 01°18' E 103°43'0 0.0
2017-Dec-06 22:00N 01°18' E 103°43'0 0.0
2017-Dec-06 21:30N 01°18' E 103°43'0 0.0
2017-Dec-06 21:00N 01°18' E 103°43'  
2017-Dec-04 10:31N 01°18' E 103°43'0 0.0
2017-Dec-04 10:00N 01°18' E 103°43'0 0.0
2017-Dec-04 09:30N 01°18' E 103°43'0 0.0
2017-Dec-04 09:00N 01°18' E 103°43'0 0.0
2017-Dec-04 08:30N 01°18' E 103°43'0 0.0
2017-Dec-04 08:00N 01°18' E 103°43'0 0.0
2017-Dec-04 07:30N 01°18' E 103°43'0 0.0
2017-Dec-04 07:00N 01°18' E 103°43'0 0.0
2017-Dec-04 06:30N 01°18' E 103°43'0 0.0
2017-Dec-04 06:00N 01°18' E 103°43'0 0.0
2017-Dec-04 05:30N 01°18' E 103°43'0 0.0
2017-Dec-04 05:00N 01°18' E 103°43'0 0.0
2017-Dec-04 04:30N 01°18' E 103°43'0 0.0
2017-Dec-04 04:00N 01°18' E 103°43'0 0.0
2017-Dec-04 03:30N 01°18' E 103°43'0 0.0
2017-Dec-04 03:00N 01°18' E 103°43'0 0.0
2017-Dec-04 02:30N 01°18' E 103°43'0 0.0
2017-Dec-04 02:00N 01°18' E 103°43'0 0.0
2017-Dec-04 01:30N 01°18' E 103°43'0 0.0
2017-Dec-04 01:00N 01°18' E 103°43'0 0.0
2017-Dec-04 00:30N 01°18' E 103°43'0 0.0
2017-Dec-04 00:00N 01°18' E 103°43'0 0.0
2017-Dec-03 23:30N 01°18' E 103°43'0 0.0
2017-Dec-03 23:00N 01°18' E 103°43'0 0.0
2017-Dec-03 22:30N 01°18' E 103°43'0 0.0
2017-Dec-03 22:00N 01°18' E 103°43'0 0.0
2017-Dec-03 21:30N 01°18' E 103°43'0 0.0
2017-Dec-03 21:00N 01°18' E 103°43'0 0.0
2017-Dec-03 20:30N 01°18' E 103°43'0 0.0
2017-Dec-03 20:00N 01°18' E 103°43'0 0.0
2017-Dec-03 19:30N 01°18' E 103°43'0 0.0
2017-Dec-03 19:00N 01°18' E 103°43'0 0.0
2017-Dec-03 18:30N 01°18' E 103°43'0 0.0
2017-Dec-03 18:00N 01°18' E 103°43'0 0.0
2017-Dec-03 17:30N 01°18' E 103°43'0 0.0
2017-Dec-03 17:00N 01°18' E 103°43'0 0.0
2017-Dec-03 16:31N 01°18' E 103°43'0 0.0
2017-Dec-03 16:00N 01°18' E 103°43'0 0.0
2017-Dec-03 15:30N 01°18' E 103°43'0 0.0
2017-Dec-03 15:00N 01°18' E 103°43'0 0.0
2017-Dec-03 14:30N 01°18' E 103°43'0 0.0
2017-Dec-03 14:00N 01°18' E 103°43'0 0.0
2017-Dec-03 13:30N 01°18' E 103°43'0 0.0
2017-Dec-03 13:00N 01°18' E 103°43'0 0.0
2017-Dec-03 12:30N 01°18' E 103°43'0 0.0
2017-Dec-03 12:00N 01°18' E 103°43'0 0.0
2017-Dec-03 11:30N 01°18' E 103°43'0 0.0
2017-Dec-03 11:00N 01°18' E 103°43'0 0.0
2017-Dec-03 10:30N 01°18' E 103°43'0 0.0
2017-Dec-03 10:00N 01°18' E 103°43'0 0.0
2017-Dec-03 09:30N 01°18' E 103°43'0 0.0
2017-Dec-03 09:00N 01°18' E 103°43'0 0.0
2017-Dec-03 08:30N 01°18' E 103°43'0 0.0
2017-Dec-03 08:00N 01°18' E 103°43'0 0.0
2017-Dec-03 07:30N 01°18' E 103°43'0 0.0
2017-Dec-03 07:00N 01°18' E 103°43'0 0.0
2017-Dec-03 06:30N 01°18' E 103°43'0 0.0
2017-Dec-03 06:00N 01°18' E 103°43'0 0.0
2017-Dec-03 05:30N 01°18' E 103°43'0 0.0
2017-Dec-03 05:00N 01°18' E 103°43'0 0.0
2017-Dec-03 04:30N 01°18' E 103°43'0 0.0
2017-Dec-03 04:00N 01°18' E 103°43'0 0.0
2017-Dec-03 03:30N 01°18' E 103°43'0 0.0
2017-Dec-03 03:00N 01°18' E 103°43'0 0.0
2017-Dec-03 02:30N 01°18' E 103°43'0 0.0
2017-Dec-03 02:00N 01°18' E 103°43'0 0.0
2017-Dec-03 01:30N 01°18' E 103°43'0 0.0
2017-Dec-03 01:00N 01°18' E 103°43'0 0.0
2017-Dec-03 00:30N 01°18' E 103°43'0 0.0
2017-Dec-03 00:01N 01°18' E 103°43'0 0.4
2017-Dec-02 23:30N 01°18' E 103°43'1 2.1
2017-Dec-02 23:00N 01°17' E 103°44'3 6.2
2017-Dec-02 22:30N 01°16' E 103°46'510.4
2017-Dec-02 22:00N 01°12' E 103°50'5 9.6
2017-Dec-02 21:30N 01°14' E 103°55'4 8.4
2017-Dec-02 21:00N 01°15' E 103°59'5 8.7
2017-Dec-02 20:28N 01°16' E 104°03'  

Dump ship's entire track history